BEL1MG EBBR-EKCH
Flight info
| Callsign | BEL1MG |
|---|---|
| Flight time | 1h 11m |
| Altitude | 37000 |
| Route | NIK L191 VICOT N873 BEDUM DCT DOSUR P729 TUDLO |
| Aircraft | A320/M-SDE3FGHIRWY/LB1 |
Departure
| Time | 2026-04-30 20:29 |
|---|---|
| Airport | Brussels Airport (EBBR) |
Arrival
| Time | 2026-04-30 21:40 |
|---|---|
| Airport | Copenhagen Kastrup Airport (EKCH) |
| Time | Latitude | Longitude | Altitude | Speed | Heading |
|---|---|---|---|---|---|
| 2026-04-30 19:54 | 50.90411 | 4.48597 | 201 ft | 0 kts | 155° |
| 2026-04-30 20:14 | 50.90412 | 4.48596 | 185 ft | 1 kts | 155° |
| 2026-04-30 20:14 | 50.90427 | 4.48585 | 201 ft | 3 kts | 157° |
| 2026-04-30 20:14 | 50.90446 | 4.48572 | 192 ft | 3 kts | 156° |
| 2026-04-30 20:15 | 50.90465 | 4.48559 | 196 ft | 3 kts | 149° |
| 2026-04-30 20:15 | 50.90481 | 4.48542 | 189 ft | 3 kts | 148° |
| 2026-04-30 20:15 | 50.90498 | 4.48526 | 201 ft | 2 kts | 145° |
| 2026-04-30 20:15 | 50.90506 | 4.48517 | 191 ft | 1 kts | 144° |
| 2026-04-30 20:16 | 50.90507 | 4.48516 | 192 ft | 0 kts | 144° |
| 2026-04-30 20:19 | 50.90507 | 4.48553 | 190 ft | 7 kts | 63° |
| 2026-04-30 20:19 | 50.90562 | 4.48604 | 192 ft | 12 kts | 21° |
| 2026-04-30 20:20 | 50.90626 | 4.48722 | 187 ft | 17 kts | 65° |
| 2026-04-30 20:20 | 50.90676 | 4.48897 | 190 ft | 9 kts | 66° |
| 2026-04-30 20:20 | 50.90693 | 4.48958 | 188 ft | 2 kts | 66° |
| 2026-04-30 20:20 | 50.90698 | 4.48975 | 196 ft | 3 kts | 66° |
| 2026-04-30 20:21 | 50.90700 | 4.48984 | 193 ft | 0 kts | 66° |
| 2026-04-30 20:21 | 50.90701 | 4.48988 | 191 ft | 3 kts | 66° |
| 2026-04-30 20:21 | 50.90711 | 4.49041 | 196 ft | 0 kts | 83° |
| 2026-04-30 20:22 | 50.90711 | 4.49043 | 196 ft | 0 kts | 83° |
| 2026-04-30 20:22 | 50.90711 | 4.49045 | 197 ft | 1 kts | 84° |
| 2026-04-30 20:22 | 50.90704 | 4.49082 | 191 ft | 7 kts | 121° |
| 2026-04-30 20:23 | 50.90653 | 4.49132 | 192 ft | 11 kts | 155° |
| 2026-04-30 20:23 | 50.90575 | 4.49192 | 190 ft | 14 kts | 154° |
| 2026-04-30 20:23 | 50.90475 | 4.49265 | 193 ft | 17 kts | 155° |
| 2026-04-30 20:23 | 50.90413 | 4.49410 | 184 ft | 17 kts | 105° |
| 2026-04-30 20:24 | 50.90346 | 4.49494 | 185 ft | 12 kts | 135° |
| 2026-04-30 20:24 | 50.90263 | 4.49512 | 185 ft | 12 kts | 192° |
| 2026-04-30 20:24 | 50.90173 | 4.49478 | 184 ft | 15 kts | 194° |
| 2026-04-30 20:24 | 50.90049 | 4.49430 | 189 ft | 21 kts | 193° |
| 2026-04-30 20:25 | 50.89728 | 4.49295 | 185 ft | 16 kts | 194° |
| 2026-04-30 20:25 | 50.89632 | 4.49247 | 189 ft | 14 kts | 203° |
| 2026-04-30 20:26 | 50.89464 | 4.49145 | 191 ft | 14 kts | 195° |
| 2026-04-30 20:26 | 50.89277 | 4.49068 | 184 ft | 16 kts | 194° |
| 2026-04-30 20:26 | 50.89163 | 4.49027 | 183 ft | 12 kts | 185° |
| 2026-04-30 20:27 | 50.89149 | 4.49108 | 188 ft | 2 kts | 69° |
| 2026-04-30 20:27 | 50.89149 | 4.49109 | 188 ft | 0 kts | 69° |
| 2026-04-30 20:28 | 50.89150 | 4.49114 | 187 ft | 4 kts | 69° |
| 2026-04-30 20:28 | 50.89471 | 4.50495 | 188 ft | 130 kts | 70° |
| 2026-04-30 20:29 | 50.90214 | 4.53650 | 1224 ft | 156 kts | 71° |
| 2026-04-30 20:30 | 50.92992 | 4.55663 | 3366 ft | 197 kts | 330° |
| 2026-04-30 20:30 | 50.96356 | 4.50191 | 4415 ft | 270 kts | 308° |
| 2026-04-30 20:31 | 51.00221 | 4.43073 | 6772 ft | 296 kts | 316° |
| 2026-04-30 20:32 | 51.04846 | 4.36376 | 9500 ft | 305 kts | 318° |
| 2026-04-30 20:32 | 51.07991 | 4.31665 | 10738 ft | 330 kts | 317° |
| 2026-04-30 20:33 | 51.09701 | 4.29031 | 10996 ft | 354 kts | 316° |
| 2026-04-30 20:33 | 51.13332 | 4.23365 | 12133 ft | 374 kts | 316° |
| 2026-04-30 20:33 | 51.15218 | 4.20410 | 12884 ft | 378 kts | 316° |
| 2026-04-30 20:34 | 51.18603 | 4.15914 | 14112 ft | 384 kts | 324° |
| 2026-04-30 20:34 | 51.22945 | 4.10812 | 15398 ft | 392 kts | 324° |
| 2026-04-30 20:35 | 51.25214 | 4.08371 | 16032 ft | 395 kts | 332° |
| 2026-04-30 20:35 | 51.27725 | 4.06588 | 16654 ft | 397 kts | 343° |
| 2026-04-30 20:35 | 51.33189 | 4.05351 | 17918 ft | 401 kts | 1° |
| 2026-04-30 20:36 | 51.35996 | 4.05305 | 18551 ft | 405 kts | 1° |
| 2026-04-30 20:36 | 51.38822 | 4.05255 | 19106 ft | 408 kts | 1° |
| 2026-04-30 20:36 | 51.44540 | 4.05150 | 20262 ft | 414 kts | 2° |
| 2026-04-30 20:37 | 51.47407 | 4.05529 | 20823 ft | 414 kts | 12° |
| 2026-04-30 20:37 | 51.50190 | 4.06681 | 21372 ft | 414 kts | 22° |
| 2026-04-30 20:37 | 51.52840 | 4.08507 | 21915 ft | 415 kts | 27° |
| 2026-04-30 20:37 | 51.55475 | 4.10467 | 22451 ft | 417 kts | 27° |
| 2026-04-30 20:38 | 51.58083 | 4.12408 | 22963 ft | 420 kts | 27° |
| 2026-04-30 20:38 | 51.60752 | 4.14388 | 23473 ft | 422 kts | 27° |
| 2026-04-30 20:38 | 51.63430 | 4.16367 | 23948 ft | 425 kts | 27° |
| 2026-04-30 20:39 | 51.68837 | 4.20383 | 24744 ft | 430 kts | 27° |
| 2026-04-30 20:39 | 51.71563 | 4.22417 | 25130 ft | 432 kts | 27° |
| 2026-04-30 20:39 | 51.74301 | 4.24465 | 25516 ft | 434 kts | 27° |
| 2026-04-30 20:40 | 51.79814 | 4.28598 | 26266 ft | 439 kts | 27° |
| 2026-04-30 20:40 | 51.82594 | 4.30688 | 26630 ft | 441 kts | 27° |
| 2026-04-30 20:40 | 51.85378 | 4.32787 | 26986 ft | 443 kts | 27° |
| 2026-04-30 20:41 | 51.90992 | 4.37037 | 27674 ft | 448 kts | 27° |
| 2026-04-30 20:41 | 51.93819 | 4.39176 | 27993 ft | 450 kts | 27° |
| 2026-04-30 20:41 | 51.96660 | 4.41321 | 28317 ft | 452 kts | 26° |
| 2026-04-30 20:41 | 51.99516 | 4.43479 | 28623 ft | 454 kts | 27° |
| 2026-04-30 20:42 | 52.02393 | 4.45657 | 28913 ft | 456 kts | 26° |
| 2026-04-30 20:42 | 52.05278 | 4.47845 | 29200 ft | 458 kts | 27° |
| 2026-04-30 20:42 | 52.11065 | 4.52249 | 29746 ft | 461 kts | 27° |
| 2026-04-30 20:43 | 52.13977 | 4.54475 | 30003 ft | 463 kts | 27° |
| 2026-04-30 20:43 | 52.16858 | 4.56680 | 30269 ft | 464 kts | 27° |
| 2026-04-30 20:43 | 52.19769 | 4.58914 | 30583 ft | 463 kts | 26° |
| 2026-04-30 20:44 | 52.25572 | 4.63373 | 31189 ft | 460 kts | 26° |
| 2026-04-30 20:44 | 52.28482 | 4.65603 | 31489 ft | 459 kts | 26° |
| 2026-04-30 20:44 | 52.34254 | 4.70040 | 32106 ft | 457 kts | 26° |
| 2026-04-30 20:45 | 52.39993 | 4.74474 | 32740 ft | 455 kts | 26° |
| 2026-04-30 20:45 | 52.42852 | 4.76686 | 33044 ft | 453 kts | 26° |
| 2026-04-30 20:45 | 52.45701 | 4.78894 | 33355 ft | 452 kts | 26° |
| 2026-04-30 20:46 | 52.53867 | 4.86287 | 34288 ft | 447 kts | 41° |
| 2026-04-30 20:46 | 52.56107 | 4.89799 | 34558 ft | 445 kts | 50° |
| 2026-04-30 20:47 | 52.59964 | 4.97734 | 35074 ft | 443 kts | 52° |
| 2026-04-30 20:47 | 52.61878 | 5.01724 | 35340 ft | 443 kts | 52° |
| 2026-04-30 20:48 | 52.65681 | 5.09668 | 35814 ft | 442 kts | 52° |
| 2026-04-30 20:48 | 52.67590 | 5.13668 | 36042 ft | 442 kts | 52° |
| 2026-04-30 20:48 | 52.69485 | 5.17640 | 36262 ft | 441 kts | 53° |
| 2026-04-30 20:48 | 52.71378 | 5.21621 | 36489 ft | 441 kts | 53° |
| 2026-04-30 20:49 | 52.73265 | 5.25603 | 36717 ft | 441 kts | 53° |
| 2026-04-30 20:49 | 52.75148 | 5.29581 | 36905 ft | 440 kts | 53° |
| 2026-04-30 20:49 | 52.77034 | 5.33567 | 37118 ft | 440 kts | 53° |
| 2026-04-30 20:50 | 52.80794 | 5.41525 | 37355 ft | 440 kts | 53° |
| 2026-04-30 20:50 | 52.84550 | 5.49507 | 37369 ft | 440 kts | 53° |
| 2026-04-30 20:51 | 52.88275 | 5.57459 | 37362 ft | 439 kts | 53° |
| 2026-04-30 20:51 | 52.93888 | 5.69480 | 37373 ft | 439 kts | 53° |
| 2026-04-30 20:52 | 52.97622 | 5.77501 | 37385 ft | 439 kts | 53° |
| 2026-04-30 20:53 | 53.03224 | 5.89582 | 37394 ft | 440 kts | 52° |
| 2026-04-30 20:53 | 53.06950 | 5.97651 | 37392 ft | 440 kts | 53° |
| 2026-04-30 20:54 | 53.12522 | 6.09782 | 37395 ft | 440 kts | 52° |
| 2026-04-30 20:55 | 53.18095 | 6.21953 | 37410 ft | 440 kts | 52° |
| 2026-04-30 20:55 | 53.21802 | 6.30076 | 37400 ft | 440 kts | 52° |
| 2026-04-30 20:56 | 53.27318 | 6.42257 | 37418 ft | 440 kts | 52° |
| 2026-04-30 20:57 | 53.32844 | 6.54494 | 37418 ft | 440 kts | 52° |
| 2026-04-30 20:57 | 53.36851 | 6.62202 | 37417 ft | 439 kts | 44° |
| 2026-04-30 20:58 | 53.43404 | 6.72922 | 37415 ft | 439 kts | 44° |
| 2026-04-30 20:58 | 53.47769 | 6.80111 | 37432 ft | 439 kts | 44° |
| 2026-04-30 20:59 | 53.54296 | 6.90906 | 37436 ft | 439 kts | 44° |
| 2026-04-30 21:00 | 53.62953 | 7.05265 | 37442 ft | 438 kts | 44° |
| 2026-04-30 21:01 | 53.69442 | 7.16153 | 37432 ft | 438 kts | 47° |
| 2026-04-30 21:02 | 53.75311 | 7.28034 | 37430 ft | 439 kts | 50° |
| 2026-04-30 21:02 | 53.79138 | 7.36084 | 37442 ft | 439 kts | 50° |
| 2026-04-30 21:03 | 53.82981 | 7.44110 | 37444 ft | 439 kts | 50° |
| 2026-04-30 21:03 | 53.86842 | 7.52143 | 37444 ft | 439 kts | 50° |
| 2026-04-30 21:04 | 53.90674 | 7.60143 | 37460 ft | 439 kts | 50° |
| 2026-04-30 21:04 | 53.96439 | 7.72239 | 37450 ft | 440 kts | 50° |
| 2026-04-30 21:05 | 54.00275 | 7.80325 | 37464 ft | 440 kts | 50° |
| 2026-04-30 21:05 | 54.04109 | 7.88428 | 37454 ft | 440 kts | 50° |
| 2026-04-30 21:06 | 54.07935 | 7.96545 | 37466 ft | 440 kts | 50° |
| 2026-04-30 21:06 | 54.11760 | 8.04694 | 37461 ft | 440 kts | 50° |
| 2026-04-30 21:07 | 54.15581 | 8.12832 | 37460 ft | 440 kts | 50° |
| 2026-04-30 21:07 | 54.19396 | 8.20998 | 37456 ft | 440 kts | 50° |
| 2026-04-30 21:08 | 54.23199 | 8.29171 | 37467 ft | 439 kts | 50° |
| 2026-04-30 21:08 | 54.26989 | 8.37371 | 37472 ft | 439 kts | 50° |
| 2026-04-30 21:09 | 54.30783 | 8.45580 | 37472 ft | 439 kts | 50° |
| 2026-04-30 21:09 | 54.34574 | 8.53787 | 37468 ft | 439 kts | 50° |
| 2026-04-30 21:10 | 54.38359 | 8.62018 | 37476 ft | 439 kts | 50° |
| 2026-04-30 21:10 | 54.42132 | 8.70270 | 37472 ft | 439 kts | 50° |
| 2026-04-30 21:11 | 54.45901 | 8.78541 | 37473 ft | 439 kts | 50° |
| 2026-04-30 21:11 | 54.49660 | 8.86829 | 37469 ft | 439 kts | 50° |
| 2026-04-30 21:12 | 54.53420 | 8.95129 | 37473 ft | 440 kts | 50° |
| 2026-04-30 21:12 | 54.57154 | 9.03385 | 37474 ft | 440 kts | 50° |
| 2026-04-30 21:13 | 54.60910 | 9.11724 | 37480 ft | 440 kts | 50° |
| 2026-04-30 21:13 | 54.64651 | 9.20078 | 37478 ft | 440 kts | 50° |
| 2026-04-30 21:14 | 54.68390 | 9.28442 | 37480 ft | 440 kts | 51° |
| 2026-04-30 21:14 | 54.72128 | 9.36839 | 37479 ft | 440 kts | 51° |
| 2026-04-30 21:15 | 54.75855 | 9.45218 | 37478 ft | 440 kts | 51° |
| 2026-04-30 21:15 | 54.79584 | 9.53619 | 37476 ft | 440 kts | 51° |
| 2026-04-30 21:16 | 54.83300 | 9.62055 | 37476 ft | 440 kts | 51° |
| 2026-04-30 21:16 | 54.87006 | 9.70505 | 37480 ft | 440 kts | 51° |
| 2026-04-30 21:17 | 54.90714 | 9.78960 | 37480 ft | 440 kts | 51° |
| 2026-04-30 21:17 | 54.94421 | 9.87439 | 37477 ft | 440 kts | 51° |
| 2026-04-30 21:18 | 54.96244 | 9.91621 | 37125 ft | 439 kts | 51° |
| 2026-04-30 21:18 | 54.98095 | 9.95879 | 36272 ft | 441 kts | 51° |
| 2026-04-30 21:18 | 54.99944 | 10.00139 | 35428 ft | 439 kts | 51° |
| 2026-04-30 21:18 | 55.01760 | 10.04337 | 34640 ft | 429 kts | 51° |
| 2026-04-30 21:19 | 55.03548 | 10.08472 | 33685 ft | 426 kts | 51° |
| 2026-04-30 21:19 | 55.05308 | 10.12546 | 32731 ft | 430 kts | 51° |
| 2026-04-30 21:19 | 55.07141 | 10.16799 | 31751 ft | 433 kts | 51° |
| 2026-04-30 21:19 | 55.08953 | 10.21013 | 30732 ft | 437 kts | 51° |
| 2026-04-30 21:20 | 55.10792 | 10.25297 | 29496 ft | 442 kts | 51° |
| 2026-04-30 21:20 | 55.12633 | 10.29593 | 28378 ft | 443 kts | 51° |
| 2026-04-30 21:20 | 55.14470 | 10.33891 | 27623 ft | 437 kts | 51° |
| 2026-04-30 21:20 | 55.15665 | 10.36696 | 27198 ft | 431 kts | 51° |
| 2026-04-30 21:21 | 55.17443 | 10.40876 | 26474 ft | 426 kts | 52° |
| 2026-04-30 21:21 | 55.19775 | 10.46358 | 25558 ft | 420 kts | 52° |
| 2026-04-30 21:21 | 55.23228 | 10.54483 | 24209 ft | 413 kts | 52° |
| 2026-04-30 21:22 | 55.24934 | 10.58508 | 23479 ft | 409 kts | 52° |
| 2026-04-30 21:22 | 55.28491 | 10.70018 | 21778 ft | 400 kts | 71° |
| 2026-04-30 21:23 | 55.29282 | 10.74674 | 21179 ft | 396 kts | 71° |
| 2026-04-30 21:23 | 55.30052 | 10.79188 | 20897 ft | 374 kts | 71° |
| 2026-04-30 21:23 | 55.31516 | 10.87775 | 19474 ft | 357 kts | 71° |
| 2026-04-30 21:24 | 55.32234 | 10.91976 | 19070 ft | 359 kts | 71° |
| 2026-04-30 21:24 | 55.32941 | 10.96109 | 18583 ft | 357 kts | 71° |
| 2026-04-30 21:24 | 55.33649 | 11.00280 | 18075 ft | 357 kts | 72° |
| 2026-04-30 21:24 | 55.34348 | 11.04452 | 17583 ft | 355 kts | 72° |
| 2026-04-30 21:25 | 55.35721 | 11.12725 | 16584 ft | 350 kts | 72° |
| 2026-04-30 21:25 | 55.36398 | 11.16829 | 16080 ft | 348 kts | 72° |
| 2026-04-30 21:25 | 55.37070 | 11.20903 | 15564 ft | 347 kts | 72° |
| 2026-04-30 21:26 | 55.38402 | 11.29023 | 14504 ft | 344 kts | 73° |
| 2026-04-30 21:26 | 55.39061 | 11.33062 | 14081 ft | 340 kts | 73° |
| 2026-04-30 21:27 | 55.40349 | 11.40966 | 12596 ft | 330 kts | 73° |
| 2026-04-30 21:27 | 55.40975 | 11.44801 | 11815 ft | 322 kts | 73° |
| 2026-04-30 21:27 | 55.41582 | 11.48550 | 11053 ft | 315 kts | 73° |
| 2026-04-30 21:28 | 55.42758 | 11.55860 | 9504 ft | 305 kts | 73° |
| 2026-04-30 21:28 | 55.43333 | 11.59424 | 8767 ft | 299 kts | 73° |
| 2026-04-30 21:28 | 55.44930 | 11.65869 | 7654 ft | 276 kts | 62° |
| 2026-04-30 21:29 | 55.45431 | 11.69045 | 7174 ft | 268 kts | 83° |
| 2026-04-30 21:29 | 55.46086 | 11.78772 | 6496 ft | 266 kts | 82° |
| 2026-04-30 21:30 | 55.46575 | 11.85183 | 6240 ft | 266 kts | 82° |
| 2026-04-30 21:31 | 55.47327 | 11.94856 | 5862 ft | 265 kts | 82° |
| 2026-04-30 21:31 | 55.47825 | 12.01306 | 5613 ft | 265 kts | 82° |
| 2026-04-30 21:32 | 55.48314 | 12.07751 | 5119 ft | 265 kts | 82° |
| 2026-04-30 21:32 | 55.48555 | 12.10968 | 4701 ft | 264 kts | 82° |
| 2026-04-30 21:32 | 55.48793 | 12.14170 | 4294 ft | 262 kts | 82° |
| 2026-04-30 21:32 | 55.49023 | 12.17286 | 4144 ft | 250 kts | 82° |
| 2026-04-30 21:33 | 55.49242 | 12.20247 | 4003 ft | 238 kts | 82° |
| 2026-04-30 21:33 | 55.48639 | 12.25702 | 3648 ft | 225 kts | 121° |
| 2026-04-30 21:33 | 55.47683 | 12.27829 | 3408 ft | 221 kts | 130° |
| 2026-04-30 21:34 | 55.46672 | 12.29869 | 3355 ft | 222 kts | 130° |
| 2026-04-30 21:34 | 55.44667 | 12.34043 | 3176 ft | 223 kts | 119° |
| 2026-04-30 21:34 | 55.44380 | 12.36604 | 3075 ft | 210 kts | 75° |
| 2026-04-30 21:35 | 55.45103 | 12.38677 | 2932 ft | 196 kts | 39° |
| 2026-04-30 21:35 | 55.45936 | 12.39938 | 2830 ft | 186 kts | 39° |
| 2026-04-30 21:35 | 55.46885 | 12.41394 | 2669 ft | 176 kts | 39° |
| 2026-04-30 21:35 | 55.47780 | 12.42768 | 2542 ft | 165 kts | 38° |
| 2026-04-30 21:36 | 55.48622 | 12.44060 | 2424 ft | 155 kts | 38° |
| 2026-04-30 21:36 | 55.49412 | 12.45270 | 2315 ft | 146 kts | 37° |
| 2026-04-30 21:37 | 55.51603 | 12.48630 | 2018 ft | 137 kts | 37° |
| 2026-04-30 21:37 | 55.52320 | 12.49730 | 1848 ft | 134 kts | 36° |
| 2026-04-30 21:37 | 55.53006 | 12.50785 | 1690 ft | 132 kts | 36° |
| 2026-04-30 21:37 | 55.53679 | 12.51824 | 1480 ft | 127 kts | 37° |
| 2026-04-30 21:38 | 55.54352 | 12.52877 | 1287 ft | 130 kts | 37° |
| 2026-04-30 21:38 | 55.55030 | 12.53949 | 1134 ft | 130 kts | 37° |
| 2026-04-30 21:38 | 55.55706 | 12.55006 | 974 ft | 129 kts | 36° |
| 2026-04-30 21:38 | 55.56399 | 12.56034 | 800 ft | 131 kts | 36° |
| 2026-04-30 21:39 | 55.57097 | 12.57072 | 627 ft | 132 kts | 38° |
| 2026-04-30 21:39 | 55.57788 | 12.58143 | 480 ft | 133 kts | 39° |
| 2026-04-30 21:39 | 55.58486 | 12.59231 | 264 ft | 135 kts | 39° |
| 2026-04-30 21:39 | 55.59188 | 12.60314 | 81 ft | 131 kts | 39° |
| 2026-04-30 21:40 | 55.59828 | 12.61290 | 21 ft | 105 kts | 41° |
| 2026-04-30 21:40 | 55.60254 | 12.61949 | 21 ft | 65 kts | 40° |
| 2026-04-30 21:40 | 55.60542 | 12.62388 | 24 ft | 44 kts | 40° |
| 2026-04-30 21:40 | 55.60752 | 12.62716 | 27 ft | 38 kts | 37° |
| 2026-04-30 21:41 | 55.60959 | 12.62854 | 23 ft | 24 kts | 13° |
| 2026-04-30 21:41 | 55.61049 | 12.62892 | 22 ft | 6 kts | 13° |
| 2026-04-30 21:41 | 55.61066 | 12.62899 | 23 ft | 1 kts | 13° |
| 2026-04-30 21:41 | 55.61068 | 12.62900 | 23 ft | 0 kts | 13° |
| 2026-04-30 21:42 | 55.61073 | 12.62902 | 23 ft | 4 kts | 13° |
| 2026-04-30 21:42 | 55.61124 | 12.62933 | 25 ft | 13 kts | 26° |
| 2026-04-30 21:42 | 55.61227 | 12.63077 | 26 ft | 23 kts | 41° |
| 2026-04-30 21:42 | 55.61356 | 12.63279 | 29 ft | 28 kts | 41° |
| 2026-04-30 21:43 | 55.61518 | 12.63531 | 23 ft | 34 kts | 41° |
| 2026-04-30 21:43 | 55.61703 | 12.63814 | 26 ft | 36 kts | 40° |
| 2026-04-30 21:43 | 55.61894 | 12.64096 | 28 ft | 36 kts | 29° |
| 2026-04-30 21:43 | 55.62135 | 12.64290 | 18 ft | 39 kts | 25° |
| 2026-04-30 21:44 | 55.62330 | 12.64425 | 19 ft | 23 kts | 15° |
| 2026-04-30 21:44 | 55.62466 | 12.64512 | 21 ft | 16 kts | 57° |
| 2026-04-30 21:44 | 55.62459 | 12.64633 | 22 ft | 9 kts | 60° |
| 2026-04-30 21:44 | 55.62515 | 12.64660 | 20 ft | 10 kts | 355° |
| 2026-04-30 21:45 | 55.62555 | 12.64623 | 19 ft | 0 kts | 316° |
| 2026-04-30 21:45 | 55.62561 | 12.64611 | 19 ft | 4 kts | 312° |
| 2026-04-30 21:45 | 55.62578 | 12.64568 | 19 ft | 2 kts | 305° |
| 2026-04-30 21:45 | 55.62580 | 12.64565 | 19 ft | 0 kts | 305° |
| 2026-04-30 21:46 | 55.62649 | 12.64565 | 22 ft | 0 kts | 301° |